createdAt,value
2022-11-05T00:02:32.069Z,4.97
2022-11-05T00:05:13.832Z,5.00
2022-11-05T00:07:58.274Z,4.37
2022-11-05T00:10:30.837Z,5.10
2022-11-05T00:13:14.722Z,5.30
2022-11-05T00:15:56.538Z,5.07
2022-11-05T00:18:26.137Z,4.70
2022-11-05T00:20:55.420Z,5.00
2022-11-05T00:23:37.284Z,5.43
2022-11-05T00:26:11.499Z,5.43
2022-11-05T00:28:43.699Z,5.38
2022-11-05T00:33:45.791Z,5.50
2022-11-05T00:36:15.467Z,4.95
2022-11-05T00:38:44.745Z,4.88
2022-11-05T00:41:14.032Z,5.35
2022-11-05T00:43:55.789Z,5.50
2022-11-05T00:46:25.058Z,5.20
2022-11-05T00:49:06.855Z,5.22
2022-11-05T00:51:36.135Z,5.40
2022-11-05T00:54:05.430Z,5.40
2022-11-05T00:56:34.740Z,4.93
2022-11-05T00:59:04.186Z,5.22
2022-11-05T01:01:33.617Z,5.10
2022-11-05T01:04:02.963Z,5.53
2022-11-05T01:06:32.213Z,5.82
2022-11-05T01:09:01.467Z,5.30
2022-11-05T01:11:37.247Z,5.97
2022-11-05T01:14:10.399Z,5.47
2022-11-05T01:16:41.667Z,5.65
2022-11-05T01:19:13.826Z,4.97
2022-11-05T01:21:43.174Z,5.32
2022-11-05T01:24:13.613Z,5.10
2022-11-05T01:26:42.934Z,4.97
2022-11-05T01:29:13.733Z,7.20
2022-11-05T01:31:43.078Z,5.85
2022-11-05T01:34:12.380Z,5.70
2022-11-05T01:36:41.625Z,5.78
2022-11-05T01:39:10.882Z,5.97
2022-11-05T01:41:40.218Z,5.00
2022-11-05T01:44:49.303Z,5.15
2022-11-05T01:47:35.150Z,5.00
2022-11-05T01:50:50.002Z,5.63
2022-11-05T01:53:24.601Z,5.22
2022-11-05T01:56:04.038Z,5.53
2022-11-05T01:58:46.442Z,5.07
2022-11-05T02:01:15.813Z,5.65
2022-11-05T02:03:46.052Z,5.40
2022-11-05T02:06:18.837Z,6.15
2022-11-05T02:08:54.006Z,6.55
2022-11-05T02:11:23.645Z,6.20
2022-11-05T02:13:53.490Z,5.32
2022-11-05T02:16:38.340Z,5.53
2022-11-05T02:19:42.636Z,5.28
2022-11-05T02:22:17.793Z,5.57
2022-11-05T02:24:59.293Z,6.30
2022-11-05T02:27:53.097Z,4.97
2022-11-05T02:30:52.285Z,5.13
2022-11-05T02:33:38.799Z,5.30
2022-11-05T02:36:43.775Z,5.45
2022-11-05T02:39:32.277Z,5.22
2022-11-05T02:42:15.488Z,5.25
2022-11-05T02:44:57.185Z,4.47
2022-11-05T02:47:36.175Z,5.23
2022-11-05T02:50:05.389Z,6.03
2022-11-05T02:52:42.441Z,5.43
2022-11-05T02:55:35.496Z,6.28
2022-11-05T02:58:06.748Z,5.70
2022-11-05T03:00:47.630Z,4.80
2022-11-05T03:03:29.087Z,5.85
2022-11-05T03:06:07.893Z,4.88
2022-11-05T03:08:58.959Z,5.85
2022-11-05T03:11:31.412Z,4.95
2022-11-05T03:16:58.284Z,5.13
2022-11-05T03:19:52.619Z,4.75
2022-11-05T03:22:28.714Z,4.68
2022-11-05T03:25:03.240Z,4.63
2022-11-05T03:27:37.271Z,4.78
2022-11-05T03:30:13.453Z,4.97
2022-11-05T03:32:48.390Z,5.20
2022-11-05T03:35:25.828Z,4.55
2022-11-05T03:38:00.393Z,4.57
2022-11-05T03:40:35.094Z,3.92
2022-11-05T03:43:06.785Z,4.53
2022-11-05T03:45:42.181Z,4.30
2022-11-05T03:48:15.372Z,5.15
2022-11-05T03:51:07.509Z,4.18
2022-11-05T03:53:45.770Z,4.38
2022-11-05T03:56:23.379Z,4.30
2022-11-05T03:58:58.526Z,3.88
2022-11-05T04:01:28.686Z,4.60
2022-11-05T04:03:58.332Z,4.78
2022-11-05T04:06:40.093Z,4.63
2022-11-05T04:09:21.933Z,3.97
2022-11-05T04:12:03.768Z,4.05
2022-11-05T04:14:33.823Z,4.60
2022-11-05T04:17:09.846Z,4.47
2022-11-05T04:19:56.791Z,3.95
2022-11-05T04:22:40.398Z,4.15
2022-11-05T04:25:10.556Z,4.10
2022-11-05T04:27:40.225Z,4.68
2022-11-05T04:30:19.596Z,3.97
2022-11-05T04:33:07.523Z,3.40
2022-11-05T04:35:39.706Z,5.00
2022-11-05T04:38:12.106Z,5.50
2022-11-05T04:43:15.174Z,5.97
2022-11-05T04:45:45.465Z,5.90
2022-11-05T04:48:15.271Z,5.10
2022-11-05T04:50:44.594Z,4.72
2022-11-05T04:53:14.092Z,4.85
2022-11-05T04:55:43.610Z,5.45
2022-11-05T04:58:12.897Z,5.60
2022-11-05T05:00:42.207Z,5.10
2022-11-05T05:03:11.932Z,4.72
2022-11-05T05:05:41.392Z,5.57
2022-11-05T05:08:10.776Z,5.22
2022-11-05T05:10:40.041Z,5.70
2022-11-05T05:13:09.646Z,5.25
2022-11-05T05:15:40.426Z,5.53
2022-11-05T05:18:11.754Z,5.18
2022-11-05T05:20:53.563Z,7.22
2022-11-05T05:23:23.135Z,6.50
2022-11-05T05:25:52.468Z,7.35
2022-11-05T05:28:21.764Z,7.13
2022-11-05T05:30:56.165Z,6.55
2022-11-05T05:33:27.918Z,6.68
2022-11-05T05:36:00.384Z,6.88
2022-11-05T05:41:02.790Z,5.65
2022-11-05T05:43:33.644Z,6.63
2022-11-05T05:46:07.463Z,6.38
2022-11-05T05:48:37.265Z,6.82
2022-11-05T05:51:09.273Z,7.05
2022-11-05T05:53:39.210Z,7.90
2022-11-05T05:56:09.377Z,8.40
2022-11-05T05:58:41.645Z,7.50
2022-11-05T06:03:48.313Z,8.07
2022-11-05T06:06:19.765Z,8.48
2022-11-05T06:08:51.162Z,7.27
2022-11-05T06:11:20.758Z,7.32
2022-11-05T06:13:50.043Z,8.10
2022-11-05T06:16:19.513Z,8.95
2022-11-05T06:18:49.094Z,7.85
2022-11-05T06:21:20.687Z,8.43
2022-11-05T06:23:50.747Z,7.55
2022-11-05T06:26:21.062Z,9.13
2022-11-05T06:28:53.423Z,8.10
2022-11-05T06:31:22.761Z,8.55
2022-11-05T06:33:52.182Z,8.43
2022-11-05T06:36:23.322Z,7.32
2022-11-05T06:38:52.615Z,8.90
2022-11-05T06:41:22.004Z,9.43
2022-11-05T06:43:51.373Z,9.13
2022-11-05T06:46:23.061Z,9.68
2022-11-05T06:48:52.330Z,9.82
2022-11-05T06:51:21.640Z,10.10
2022-11-05T06:53:50.923Z,10.35
2022-11-05T06:56:22.938Z,8.65
2022-11-05T06:58:52.279Z,8.63
2022-11-05T07:01:21.838Z,9.73
2022-11-05T07:03:51.627Z,9.00
2022-11-05T07:06:20.869Z,8.82
2022-11-05T07:08:50.228Z,8.82
2022-11-05T07:11:19.625Z,9.20
2022-11-05T07:13:48.942Z,8.88
2022-11-05T07:16:18.246Z,9.15
2022-11-05T07:18:47.601Z,8.18
2022-11-05T07:21:16.929Z,9.63
2022-11-05T07:23:46.236Z,8.55
2022-11-05T07:26:15.508Z,9.70
2022-11-05T07:28:44.841Z,8.93
2022-11-05T07:31:14.123Z,8.38
2022-11-05T07:33:43.663Z,9.52
2022-11-05T07:36:13.046Z,9.50
2022-11-05T07:38:42.359Z,10.30
2022-11-05T07:41:11.669Z,9.20
2022-11-05T07:43:40.937Z,8.20
2022-11-05T07:46:13.780Z,8.85
2022-11-05T07:48:43.848Z,8.68
2022-11-05T07:51:13.163Z,9.65
2022-11-05T07:53:45.417Z,9.05
2022-11-05T07:56:15.007Z,7.95
2022-11-05T07:58:44.382Z,8.75
2022-11-05T08:01:13.861Z,8.93
2022-11-05T08:03:43.468Z,8.23
2022-11-05T08:06:12.759Z,8.35
2022-11-05T08:08:42.096Z,7.88
2022-11-05T08:11:13.129Z,8.57
2022-11-05T08:13:42.823Z,8.23
2022-11-05T08:16:12.176Z,7.95
2022-11-05T08:18:42.066Z,8.63
2022-11-05T08:21:11.629Z,7.82
2022-11-05T08:23:42.686Z,7.45
2022-11-05T08:26:12.784Z,7.65
2022-11-05T08:28:42.082Z,7.20
2022-11-05T08:31:11.578Z,8.38
2022-11-05T08:33:40.890Z,7.22
2022-11-05T08:36:10.294Z,7.65
2022-11-05T08:38:39.647Z,7.45
2022-11-05T08:41:09.035Z,7.10
2022-11-05T08:43:38.342Z,6.97
2022-11-05T08:46:07.708Z,6.95
2022-11-05T08:48:37.007Z,7.50
2022-11-05T08:51:06.391Z,6.65
2022-11-05T08:53:35.674Z,7.25
2022-11-05T08:56:04.975Z,7.05
2022-11-05T08:58:34.314Z,6.28
2022-11-05T09:01:05.194Z,7.63
2022-11-05T09:03:34.911Z,6.75
2022-11-05T09:06:04.242Z,6.55
2022-11-05T09:08:33.565Z,6.25
2022-11-05T09:11:03.027Z,6.95
2022-11-05T09:13:32.323Z,5.25
2022-11-05T09:16:02.195Z,6.00
2022-11-05T09:18:31.680Z,5.93
2022-11-05T09:21:00.973Z,5.97
2022-11-05T09:23:30.256Z,7.10
2022-11-05T09:25:59.531Z,6.60
2022-11-05T09:28:28.799Z,6.00
2022-11-05T09:30:58.242Z,6.00
2022-11-05T09:33:29.567Z,6.28
2022-11-05T09:36:02.172Z,6.15
2022-11-05T09:41:26.504Z,5.72
2022-11-05T09:44:00.812Z,4.88
2022-11-05T09:46:36.709Z,5.38
2022-11-05T09:49:10.406Z,4.93
2022-11-05T09:51:40.083Z,5.18
2022-11-05T09:54:09.385Z,6.30
2022-11-05T09:56:43.989Z,5.45
2022-11-05T09:59:20.089Z,6.05
2022-11-05T10:01:52.533Z,5.70
2022-11-05T10:04:26.525Z,5.25
2022-11-05T10:07:03.664Z,4.63
2022-11-05T10:09:40.194Z,5.13
2022-11-05T10:12:18.216Z,5.15
2022-11-05T10:14:54.598Z,5.25
2022-11-05T10:17:28.735Z,5.07
2022-11-05T10:20:11.274Z,5.20
2022-11-05T10:22:45.180Z,4.70
2022-11-05T10:25:24.467Z,4.85
2022-11-05T10:27:57.258Z,5.10
2022-11-05T10:30:26.661Z,5.25
2022-11-05T10:32:59.829Z,4.95
2022-11-05T10:35:33.439Z,5.10
2022-11-05T10:38:02.859Z,4.60
2022-11-05T10:40:38.075Z,4.57
2022-11-05T10:43:17.741Z,4.30
2022-11-05T10:45:58.014Z,4.72
2022-11-05T10:49:20.289Z,5.00
2022-11-05T10:52:00.074Z,4.03
2022-11-05T10:54:36.563Z,4.47
2022-11-05T10:57:30.624Z,4.13
2022-11-05T11:00:31.029Z,4.93
2022-11-05T11:03:05.730Z,4.63
2022-11-05T11:05:39.598Z,4.20
2022-11-05T11:08:12.165Z,5.57
2022-11-05T11:11:04.872Z,4.75
2022-11-05T11:14:00.905Z,4.43
2022-11-05T11:16:36.469Z,4.00
2022-11-05T11:19:09.131Z,4.60
2022-11-05T11:21:39.173Z,4.88
2022-11-05T11:24:09.529Z,4.63
2022-11-05T11:26:41.140Z,4.40
2022-11-05T11:29:18.904Z,5.05
2022-11-05T11:31:48.578Z,4.25
2022-11-05T11:34:34.511Z,4.53
2022-11-05T11:37:16.755Z,4.03
2022-11-05T11:39:53.228Z,4.03
2022-11-05T11:42:31.758Z,4.13
2022-11-05T11:45:06.810Z,4.63
2022-11-05T11:47:36.389Z,4.30
2022-11-05T11:50:06.047Z,4.68
2022-11-05T11:52:38.317Z,4.75
2022-11-05T11:57:55.696Z,4.13
2022-11-05T12:00:29.219Z,4.93
2022-11-05T12:03:15.640Z,4.72
2022-11-05T12:06:15.345Z,4.57
2022-11-05T12:09:01.967Z,5.03
2022-11-05T12:11:45.896Z,4.50
2022-11-05T12:14:38.573Z,5.32
2022-11-05T12:17:31.475Z,5.85
2022-11-05T12:20:18.871Z,4.82
2022-11-05T12:23:10.314Z,4.95
2022-11-05T12:25:53.798Z,4.85
2022-11-05T12:31:59.294Z,4.97
2022-11-05T12:34:56.418Z,4.63
2022-11-05T12:37:53.193Z,4.50
2022-11-05T12:40:45.710Z,4.50
2022-11-05T12:43:31.190Z,5.03
2022-11-05T12:46:28.494Z,6.47
2022-11-05T12:49:15.948Z,4.95
2022-11-05T12:52:10.599Z,5.60
2022-11-05T12:54:42.915Z,4.78
2022-11-05T12:57:15.318Z,6.35
2022-11-05T13:02:32.001Z,4.85
2022-11-05T13:05:04.603Z,5.40
2022-11-05T13:10:34.988Z,4.53
2022-11-05T13:13:25.867Z,4.45
2022-11-05T13:16:04.817Z,4.40
2022-11-05T13:18:53.517Z,4.07
2022-11-05T13:21:26.469Z,4.45
2022-11-05T13:24:15.078Z,4.25
2022-11-05T13:26:55.560Z,4.53
2022-11-05T13:29:34.189Z,4.93
2022-11-05T13:32:34.025Z,4.05
2022-11-05T13:35:05.734Z,5.68
2022-11-05T13:37:56.479Z,4.07
2022-11-05T13:40:45.617Z,4.10
2022-11-05T13:43:50.672Z,4.55
2022-11-05T13:46:31.377Z,5.38
2022-11-05T13:49:37.459Z,4.75
2022-11-05T13:52:31.977Z,5.25
2022-11-05T13:55:33.145Z,4.70
2022-11-05T13:58:30.864Z,4.43
2022-11-05T14:01:31.831Z,4.30
2022-11-05T14:04:01.596Z,3.95
2022-11-05T14:06:34.780Z,4.00
2022-11-05T14:09:10.134Z,3.97
2022-11-05T14:11:43.945Z,3.92
2022-11-05T14:14:22.405Z,4.28
2022-11-05T14:16:56.412Z,4.57
2022-11-05T14:19:37.058Z,3.85
2022-11-05T14:22:39.439Z,3.65
2022-11-05T14:25:20.770Z,3.47
2022-11-05T14:27:52.242Z,4.05
2022-11-05T14:30:48.896Z,3.67
2022-11-05T14:33:33.773Z,3.83
2022-11-05T14:36:25.074Z,3.10
2022-11-05T14:39:03.060Z,2.90
2022-11-05T14:41:33.620Z,3.38
2022-11-05T14:44:09.141Z,3.53
2022-11-05T14:46:46.293Z,3.63
2022-11-05T14:49:26.435Z,3.40
2022-11-05T14:51:59.328Z,3.55
2022-11-05T14:54:52.702Z,3.00
2022-11-05T14:57:44.759Z,4.22
2022-11-05T15:00:32.426Z,3.20
2022-11-05T15:03:05.408Z,3.20
2022-11-05T15:05:38.770Z,2.95
2022-11-05T15:08:26.914Z,3.13
2022-11-05T15:10:59.991Z,3.15
2022-11-05T15:13:38.200Z,3.58
2022-11-05T15:16:09.785Z,3.55
2022-11-05T15:18:48.277Z,3.73
2022-11-05T15:21:20.569Z,4.03
2022-11-05T15:26:24.272Z,3.00
2022-11-05T15:31:41.410Z,3.22
2022-11-05T15:34:36.655Z,3.45
2022-11-05T15:37:23.711Z,3.08
2022-11-05T15:39:55.108Z,4.05
2022-11-05T15:42:29.265Z,3.00
2022-11-05T15:45:02.599Z,3.20
2022-11-05T15:47:34.345Z,2.83
2022-11-05T15:50:14.066Z,3.20
2022-11-05T15:53:04.816Z,3.75
2022-11-05T15:55:54.609Z,4.15
2022-11-05T15:58:24.069Z,3.33
2022-11-05T16:00:53.426Z,3.38
2022-11-05T16:03:33.238Z,4.38
2022-11-05T16:06:04.017Z,3.22
2022-11-05T16:08:33.786Z,3.28
2022-11-05T16:11:04.061Z,4.93
2022-11-05T16:13:40.997Z,3.25
2022-11-05T16:16:16.342Z,5.63
2022-11-05T16:18:47.753Z,3.67
2022-11-05T16:21:22.691Z,2.83
2022-11-05T16:23:51.920Z,3.20
2022-11-05T16:27:01.355Z,3.08
2022-11-05T16:29:29.120Z,3.13
2022-11-05T16:32:00.088Z,3.25
2022-11-05T16:34:44.415Z,2.97
2022-11-05T16:37:19.170Z,3.50
2022-11-05T16:39:48.878Z,2.50
2022-11-05T16:42:27.349Z,2.85
2022-11-05T16:44:57.934Z,2.72
2022-11-05T16:47:27.489Z,3.20
2022-11-05T16:49:56.762Z,2.70
2022-11-05T16:52:26.122Z,3.22
2022-11-05T16:54:55.509Z,4.10
2022-11-05T16:57:32.019Z,3.47
2022-11-05T17:00:03.176Z,3.58
2022-11-05T17:02:32.684Z,3.70
2022-11-05T17:05:02.115Z,4.25
2022-11-05T17:07:31.368Z,3.63
2022-11-05T17:10:00.718Z,3.45
2022-11-05T17:12:29.966Z,3.33
2022-11-05T17:14:59.233Z,3.70
2022-11-05T17:17:29.060Z,3.40
2022-11-05T17:19:58.364Z,3.28
2022-11-05T17:22:27.679Z,3.42
2022-11-05T17:24:56.961Z,4.15
2022-11-05T17:27:26.316Z,3.85
2022-11-05T17:29:55.594Z,4.15
2022-11-05T17:32:24.970Z,4.03
2022-11-05T17:34:54.739Z,4.40
2022-11-05T17:37:24.099Z,3.53
2022-11-05T17:39:53.415Z,3.90
2022-11-05T17:42:22.737Z,4.28
2022-11-05T17:44:52.368Z,3.85
2022-11-05T17:47:21.837Z,3.03
2022-11-05T17:49:51.405Z,4.47
2022-11-05T17:52:20.849Z,3.35
2022-11-05T17:54:50.217Z,4.40
2022-11-05T17:57:19.606Z,3.80
2022-11-05T17:59:48.942Z,3.75
2022-11-05T18:02:21.102Z,2.72
2022-11-05T18:04:53.062Z,3.30
2022-11-05T18:07:22.648Z,3.28
2022-11-05T18:09:52.328Z,3.33
2022-11-05T18:12:21.637Z,2.83
2022-11-05T18:14:50.991Z,2.97
2022-11-05T18:17:21.409Z,3.00
2022-11-05T18:19:53.157Z,3.63
2022-11-05T18:22:23.276Z,3.22
2022-11-05T18:24:52.842Z,3.40
2022-11-05T18:27:24.575Z,2.80
2022-11-05T18:29:53.965Z,3.00
2022-11-05T18:32:26.188Z,3.65
2022-11-05T18:34:56.266Z,3.17
2022-11-05T18:37:25.652Z,3.50
2022-11-05T18:39:56.580Z,3.63
2022-11-05T18:42:25.972Z,3.00
2022-11-05T18:44:55.396Z,3.20
2022-11-05T18:47:24.901Z,3.60
2022-11-05T18:49:54.347Z,3.33
2022-11-05T18:52:23.626Z,3.63
2022-11-05T18:54:52.886Z,5.03
2022-11-05T18:57:23.523Z,3.40
2022-11-05T18:59:52.811Z,4.43
2022-11-05T19:02:22.292Z,3.70
2022-11-05T19:05:22.112Z,3.95
2022-11-05T19:07:42.052Z,3.72
2022-11-05T19:10:11.812Z,3.22
2022-11-05T19:12:41.290Z,3.25
2022-11-05T19:15:11.325Z,4.13
2022-11-05T19:17:40.623Z,3.63
2022-11-05T19:20:11.015Z,3.50
2022-11-05T19:22:40.333Z,4.00
2022-11-05T19:25:10.246Z,3.63
2022-11-05T19:27:39.544Z,3.42
2022-11-05T19:30:12.789Z,4.40
2022-11-05T19:32:42.106Z,3.92
2022-11-05T19:35:11.748Z,4.25
2022-11-05T19:37:41.050Z,4.65
2022-11-05T19:40:11.431Z,3.97
2022-11-05T19:42:40.713Z,4.15
2022-11-05T19:45:38.449Z,4.03
2022-11-05T19:47:59.917Z,5.20
2022-11-05T19:50:29.303Z,4.00
2022-11-05T19:53:01.351Z,4.35
2022-11-05T19:55:30.896Z,4.25
2022-11-05T19:58:00.174Z,4.63
2022-11-05T20:00:29.617Z,3.88
2022-11-05T20:02:58.982Z,4.57
2022-11-05T20:05:28.349Z,4.93
2022-11-05T20:07:58.891Z,5.18
2022-11-05T20:10:28.350Z,5.25
2022-11-05T20:12:57.627Z,5.05
2022-11-05T20:15:26.932Z,4.95
2022-11-05T20:17:56.312Z,5.28
2022-11-05T20:20:25.715Z,5.13
2022-11-05T20:22:55.277Z,5.53
2022-11-05T20:25:24.577Z,5.10
2022-11-05T20:27:53.846Z,5.75
2022-11-05T20:30:25.950Z,5.65
2022-11-05T20:32:59.154Z,6.75
2022-11-05T20:35:30.809Z,5.25
2022-11-05T20:38:00.124Z,5.30
2022-11-05T20:40:29.567Z,6.10
2022-11-05T20:42:58.927Z,5.80
2022-11-05T20:45:28.254Z,5.78
2022-11-05T20:47:57.561Z,5.07
2022-11-05T20:50:26.854Z,5.40
2022-11-05T20:52:56.113Z,5.88
2022-11-05T20:55:25.450Z,6.13
2022-11-05T20:57:54.781Z,5.57
2022-11-05T21:00:24.082Z,5.32
2022-11-05T21:02:53.751Z,5.68
2022-11-05T21:05:28.898Z,6.07
2022-11-05T21:08:00.582Z,5.47
2022-11-05T21:10:29.887Z,5.05
2022-11-05T21:12:59.162Z,5.78
2022-11-05T21:15:28.442Z,5.28
2022-11-05T21:17:57.701Z,5.47
2022-11-05T21:20:27.033Z,6.00
2022-11-05T21:22:56.350Z,4.88
2022-11-05T21:25:28.715Z,4.88
2022-11-05T21:30:27.349Z,5.05
2022-11-05T21:32:56.663Z,5.00
2022-11-05T21:35:26.034Z,5.63
2022-11-05T21:37:55.374Z,5.18
2022-11-05T21:40:24.729Z,5.32
2022-11-05T21:42:54.052Z,5.68
2022-11-05T21:45:26.453Z,5.70
2022-11-05T21:50:45.881Z,5.90
2022-11-05T21:53:29.286Z,4.78
2022-11-05T21:56:11.330Z,4.43
2022-11-05T21:58:53.153Z,4.10
2022-11-05T22:01:22.785Z,4.40
2022-11-05T22:03:52.191Z,5.13
2022-11-05T22:06:21.529Z,4.78
2022-11-05T22:08:50.823Z,5.22
2022-11-05T22:11:20.131Z,4.65
2022-11-05T22:13:51.952Z,4.80
2022-11-05T22:16:21.277Z,4.40
2022-11-05T22:18:51.890Z,5.13
2022-11-05T22:21:21.959Z,4.95
2022-11-05T22:23:51.631Z,4.80
2022-11-05T22:26:21.125Z,4.50
2022-11-05T22:28:50.521Z,5.00
2022-11-05T22:31:20.045Z,4.45
2022-11-05T22:33:49.836Z,4.78
2022-11-05T22:36:19.257Z,5.38
2022-11-05T22:38:52.744Z,4.68
2022-11-05T22:41:25.475Z,4.90
2022-11-05T22:43:54.954Z,5.18
2022-11-05T22:46:26.607Z,5.03
2022-11-05T22:48:56.894Z,5.45
2022-11-05T22:51:28.970Z,4.65
2022-11-05T22:53:58.605Z,5.88
2022-11-05T22:56:30.993Z,4.97
2022-11-05T23:01:30.681Z,4.82
2022-11-05T23:04:01.567Z,5.45
2022-11-05T23:06:46.094Z,4.95
2022-11-05T23:09:34.332Z,5.47
2022-11-05T23:12:04.370Z,4.90
2022-11-05T23:14:33.749Z,5.15
2022-11-05T23:17:21.432Z,4.45
2022-11-05T23:20:11.718Z,5.63
2022-11-05T23:22:53.594Z,5.50
2022-11-05T23:25:24.942Z,4.38
2022-11-05T23:27:55.781Z,4.65
2022-11-05T23:30:27.832Z,4.70
2022-11-05T23:32:56.108Z,4.10
2022-11-05T23:35:37.742Z,4.85
2022-11-05T23:38:19.931Z,4.33
2022-11-05T23:41:01.556Z,4.60
2022-11-05T23:43:43.320Z,4.47
2022-11-05T23:46:25.138Z,5.22
2022-11-05T23:48:54.454Z,3.92
2022-11-05T23:51:24.034Z,4.25
2022-11-05T23:53:53.449Z,4.53
2022-11-05T23:56:22.726Z,4.97
2022-11-05T23:58:52.026Z,4.45
